Time;durP1;ratioP1;P1;durP2;ratioP2;P2;SDS_P1;SDS_P2;PMS_P1;PMS_P2;Temp;Humidity;BMP_temperature;BMP_pressure;BME280_temperature;BME280_humidity;BME280_pressure;Samples;Min_cycle;Max_cycle;Signal;HPM_P1;HPM_P2
2024/01/18 00:02:14;;;;;;;15.83;15.33;;;11.60;99.90;;;;;;5075687;28;20305;-66
2024/01/18 00:04:41;;;;;;;16.47;15.90;;;11.50;99.90;;;;;;5080526;28;20223;-65
2024/01/18 00:07:08;;;;;;;16.13;15.63;;;11.40;99.90;;;;;;5084490;28;20708;-66
2024/01/18 00:09:35;;;;;;;17.20;16.60;;;11.40;99.90;;;;;;5078068;28;20577;-66
2024/01/18 00:12:02;;;;;;;17.97;17.37;;;11.40;99.90;;;;;;5076904;28;20214;-65
2024/01/18 00:14:28;;;;;;;16.57;16.00;;;11.50;99.90;;;;;;5078196;28;20217;-66
2024/01/18 00:16:55;;;;;;;17.00;16.40;;;11.50;99.90;;;;;;5072936;28;20689;-66
2024/01/18 00:19:23;;;;;;;17.20;16.60;;;11.60;99.90;;;;;;5071802;28;20287;-66
2024/01/18 00:21:50;;;;;;;17.80;17.20;;;11.60;99.90;;;;;;5075635;28;20234;-65
2024/01/18 00:24:16;;;;;;;17.73;17.13;;;11.60;99.90;;;;;;5072444;28;20231;-65
2024/01/18 00:26:43;;;;;;;18.27;17.67;;;11.60;99.90;;;;;;5073222;28;20677;-67
2024/01/18 00:29:10;;;;;;;17.73;17.13;;;11.60;99.90;;;;;;5070729;28;20218;-67
2024/01/18 00:31:37;;;;;;;18.37;17.77;;;11.60;99.90;;;;;;5076526;28;20208;-66
2024/01/18 00:34:03;;;;;;;17.70;17.10;;;11.70;99.90;;;;;;5073298;28;20223;-67
2024/01/18 00:36:31;;;;;;;15.63;15.13;;;11.70;99.90;;;;;;5072534;28;20218;-66
2024/01/18 00:38:58;;;;;;;17.03;16.43;;;11.80;99.90;;;;;;5070110;28;20210;-67
2024/01/18 00:41:31;;;;;;;15.27;14.77;;;11.80;99.90;;;;;;5071424;28;20200;-67
2024/01/18 00:43:58;;;;;;;16.00;15.50;;;11.80;99.90;;;;;;5071272;28;20234;-66
2024/01/18 00:46:24;;;;;;;14.30;13.80;;;11.80;99.90;;;;;;5071445;28;20835;-65
2024/01/18 00:48:51;;;;;;;15.43;14.93;;;11.80;99.90;;;;;;5073609;28;20228;-66
2024/01/18 00:51:18;;;;;;;16.33;15.83;;;11.70;99.90;;;;;;5069452;28;20264;-66
2024/01/18 00:53:46;;;;;;;16.30;15.80;;;11.70;99.90;;;;;;5073807;28;20207;-66
2024/01/18 00:56:13;;;;;;;15.50;15.00;;;11.70;99.90;;;;;;5073053;28;20277;-65
2024/01/18 00:58:40;;;;;;;14.90;14.40;;;11.90;99.90;;;;;;5075827;28;20199;-66
2024/01/18 01:01:07;;;;;;;14.40;13.90;;;11.80;99.90;;;;;;5070226;28;20242;-66
2024/01/18 01:03:34;;;;;;;13.50;13.10;;;11.80;99.90;;;;;;5073216;28;20203;-67
2024/01/18 01:06:00;;;;;;;14.17;13.67;;;11.80;99.90;;;;;;5071759;28;20589;-67
2024/01/18 01:08:28;;;;;;;13.90;13.40;;;11.90;99.90;;;;;;5070859;28;20200;-67
2024/01/18 01:10:56;;;;;;;13.93;13.43;;;11.90;99.90;;;;;;5071150;28;20207;-68
2024/01/18 01:13:23;;;;;;;13.27;12.87;;;12.00;99.90;;;;;;5068518;28;20204;-66
2024/01/18 01:15:50;;;;;;;13.77;13.27;;;12.00;99.90;;;;;;5072291;28;20215;-65
2024/01/18 01:18:16;;;;;;;13.70;13.20;;;12.00;99.90;;;;;;5071737;28;20250;-66
2024/01/18 01:20:43;;;;;;;14.20;13.70;;;12.00;99.90;;;;;;5071644;28;20195;-65
2024/01/18 01:23:10;;;;;;;13.87;13.37;;;12.00;99.90;;;;;;5071963;28;20574;-65
2024/01/18 01:25:36;;;;;;;12.60;12.20;;;12.00;99.90;;;;;;5071339;28;20227;-65
2024/01/18 01:28:05;;;;;;;13.77;13.27;;;12.00;99.90;;;;;;5072893;28;20202;-66
2024/01/18 01:30:32;;;;;;;12.63;12.23;;;12.00;99.90;;;;;;5085090;28;20200;-67
2024/01/18 01:32:59;;;;;;;12.83;12.43;;;12.00;99.90;;;;;;5084468;28;20212;-67
2024/01/18 01:35:25;;;;;;;13.40;12.90;;;12.10;99.90;;;;;;5078865;28;20567;-66
2024/01/18 01:37:52;;;;;;;13.27;12.87;;;12.00;99.90;;;;;;5075458;28;20207;-66
2024/01/18 01:40:19;;;;;;;13.20;12.80;;;12.00;99.90;;;;;;5076577;28;20208;-67
2024/01/18 01:42:46;;;;;;;13.73;13.23;;;12.00;99.90;;;;;;5078036;28;20196;-66
2024/01/18 01:45:14;;;;;;;12.80;12.40;;;12.00;99.90;;;;;;5072332;28;20224;-66
2024/01/18 01:47:41;;;;;;;12.83;12.43;;;12.00;99.90;;;;;;5075843;28;20199;-66
2024/01/18 01:50:09;;;;;;;12.83;12.37;;;12.10;99.90;;;;;;5082314;28;20194;-66
2024/01/18 01:52:37;;;;;;;12.63;12.23;;;12.10;99.90;;;;;;5081514;28;20203;-66
2024/01/18 01:55:06;;;;;;;13.10;12.70;;;12.10;99.90;;;;;;5087326;28;20234;-66
2024/01/18 01:57:33;;;;;;;12.37;11.97;;;12.10;99.90;;;;;;5081426;28;20218;-68
2024/01/18 02:00:00;;;;;;;12.90;12.50;;;12.10;99.90;;;;;;5077849;28;20200;-67
2024/01/18 02:02:28;;;;;;;13.17;12.77;;;12.10;99.90;;;;;;5086476;28;20232;-67
2024/01/18 02:04:55;;;;;;;13.47;12.97;;;12.10;99.90;;;;;;5088345;28;20227;-68
2024/01/18 02:07:25;;;;;;;12.90;12.50;;;12.10;99.90;;;;;;5088314;28;20199;-65
2024/01/18 02:09:52;;;;;;;13.20;12.70;;;12.10;99.90;;;;;;5077368;28;20204;-66
2024/01/18 02:12:21;;;;;;;13.10;12.60;;;12.10;99.90;;;;;;5072629;28;20203;-65
2024/01/18 02:14:48;;;;;;;12.73;12.33;;;12.10;99.90;;;;;;5072387;28;20631;-66
2024/01/18 02:17:15;;;;;;;12.90;12.50;;;12.10;99.90;;;;;;5071487;28;20716;-66
2024/01/18 02:19:43;;;;;;;12.27;11.87;;;12.10;99.90;;;;;;5063251;28;20204;-65
2024/01/18 02:22:11;;;;;;;12.73;12.33;;;12.20;99.90;;;;;;5068141;28;20243;-65
2024/01/18 02:24:43;;;;;;;13.10;12.67;;;12.10;99.90;;;;;;5066808;28;20322;-67
2024/01/18 02:27:11;;;;;;;12.40;12.00;;;12.10;99.90;;;;;;5067425;28;20219;-65
2024/01/18 02:29:38;;;;;;;12.93;12.43;;;12.00;99.90;;;;;;5069054;28;20195;-66
2024/01/18 02:32:05;;;;;;;12.90;12.47;;;12.00;99.90;;;;;;5070411;28;20581;-67
2024/01/18 02:34:32;;;;;;;12.70;12.30;;;12.00;99.90;;;;;;5070582;28;20219;-66
2024/01/18 02:36:59;;;;;;;13.07;12.67;;;12.00;99.90;;;;;;5074347;28;20214;-66
2024/01/18 02:39:26;;;;;;;13.10;12.70;;;12.10;99.90;;;;;;5071410;28;20729;-67
2024/01/18 02:41:54;;;;;;;12.90;12.50;;;12.00;99.90;;;;;;5071218;28;20195;-65
2024/01/18 02:44:22;;;;;;;13.00;12.60;;;12.00;99.90;;;;;;5069469;28;20227;-67
2024/01/18 02:46:49;;;;;;;12.43;12.03;;;12.00;99.90;;;;;;5071329;28;20230;-64
2024/01/18 02:49:16;;;;;;;13.00;12.60;;;11.90;99.90;;;;;;5069486;28;20230;-67
2024/01/18 02:51:43;;;;;;;12.70;12.30;;;11.90;99.90;;;;;;5067390;28;20206;-67
2024/01/18 02:54:10;;;;;;;13.30;12.80;;;12.00;99.90;;;;;;5070555;28;20610;-65
2024/01/18 02:56:37;;;;;;;12.30;11.90;;;11.90;99.90;;;;;;5067257;28;20196;-65
2024/01/18 02:59:04;;;;;;;13.00;12.60;;;11.90;99.90;;;;;;5070100;28;20203;-66
2024/01/18 03:01:32;;;;;;;13.30;12.90;;;11.90;99.90;;;;;;5071313;28;20203;-65
2024/01/18 03:03:59;;;;;;;13.50;13.00;;;11.90;99.90;;;;;;5070756;28;20238;-65
2024/01/18 03:06:26;;;;;;;14.20;13.70;;;11.90;99.90;;;;;;5070236;28;21559;-66
2024/01/18 03:08:52;;;;;;;13.60;13.10;;;11.80;99.90;;;;;;5069444;28;20195;-66
2024/01/18 03:11:19;;;;;;;13.27;12.87;;;11.90;99.90;;;;;;5077758;28;20678;-68
2024/01/18 03:13:46;;;;;;;13.37;12.90;;;11.90;99.90;;;;;;5087711;28;20580;-67
2024/01/18 03:16:15;;;;;;;12.67;12.27;;;11.90;99.90;;;;;;5077324;28;20653;-66
2024/01/18 03:18:46;;;;;;;13.40;13.00;;;11.90;99.90;;;;;;5072486;28;20208;-67
2024/01/18 03:21:12;;;;;;;13.17;12.77;;;11.90;99.90;;;;;;5071808;28;20226;-67
2024/01/18 03:23:39;;;;;;;13.33;12.87;;;11.80;99.90;;;;;;5071457;28;20559;-66
2024/01/18 03:26:07;;;;;;;13.40;13.00;;;11.70;99.90;;;;;;5071841;28;20237;-66
2024/01/18 03:28:34;;;;;;;13.83;13.33;;;11.70;99.90;;;;;;5070045;28;20547;-68
2024/01/18 03:31:01;;;;;;;14.60;14.10;;;11.70;99.90;;;;;;5070871;28;20249;-66
2024/01/18 03:33:27;;;;;;;13.87;13.37;;;11.60;99.90;;;;;;5069515;28;20212;-67
2024/01/18 03:35:57;;;;;;;14.37;13.87;;;11.60;99.90;;;;;;5069928;28;20199;-65
2024/01/18 03:38:23;;;;;;;13.90;13.40;;;11.60;99.90;;;;;;5070391;28;20607;-66
2024/01/18 03:40:50;;;;;;;14.00;13.50;;;11.60;99.90;;;;;;5070282;28;20204;-67
2024/01/18 03:43:17;;;;;;;14.10;13.60;;;11.60;99.90;;;;;;5069881;28;20204;-67
2024/01/18 03:45:44;;;;;;;13.40;13.00;;;11.50;99.90;;;;;;5070299;28;20222;-66
2024/01/18 03:48:11;;;;;;;14.97;14.47;;;11.40;99.90;;;;;;5071221;28;20206;-68
2024/01/18 03:50:37;;;;;;;13.43;12.93;;;11.50;99.90;;;;;;5070643;28;20229;-67
2024/01/18 03:53:05;;;;;;;13.80;13.30;;;11.40;99.90;;;;;;5071742;28;20670;-67
2024/01/18 03:55:32;;;;;;;15.10;14.60;;;11.50;99.90;;;;;;5069211;28;20213;-66
2024/01/18 03:57:59;;;;;;;14.97;14.47;;;11.50;99.90;;;;;;5069087;28;20207;-67
2024/01/18 04:00:26;;;;;;;14.00;13.50;;;11.50;99.90;;;;;;5069001;28;20218;-66
2024/01/18 04:02:53;;;;;;;14.43;13.93;;;11.60;99.90;;;;;;5069551;28;20199;-66
2024/01/18 04:05:19;;;;;;;14.20;13.70;;;11.50;99.90;;;;;;5069733;28;20223;-66
2024/01/18 04:07:46;;;;;;;13.90;13.40;;;11.60;99.90;;;;;;5069508;28;20206;-67
2024/01/18 04:10:14;;;;;;;14.80;14.30;;;11.60;99.90;;;;;;5068601;28;20207;-67
2024/01/18 04:12:41;;;;;;;15.00;14.50;;;11.60;99.90;;;;;;5069651;28;20203;-66
2024/01/18 04:15:09;;;;;;;14.53;14.03;;;11.60;99.90;;;;;;5069688;28;20790;-64
2024/01/18 04:17:37;;;;;;;15.10;14.60;;;11.60;99.90;;;;;;5066359;28;20242;-68
2024/01/18 04:20:05;;;;;;;16.10;15.50;;;11.70;99.90;;;;;;5068646;28;20207;-65
2024/01/18 04:22:32;;;;;;;15.13;14.63;;;11.70;99.90;;;;;;5069069;28;20638;-67
2024/01/18 04:24:59;;;;;;;16.50;15.90;;;11.70;99.90;;;;;;5067252;28;20238;-65
2024/01/18 04:27:27;;;;;;;17.37;16.77;;;11.60;99.90;;;;;;5068908;28;20215;-64
2024/01/18 04:29:54;;;;;;;16.77;16.17;;;11.60;99.90;;;;;;5068909;28;20670;-66
2024/01/18 04:32:21;;;;;;;19.33;18.63;;;11.60;99.90;;;;;;5069098;28;20207;-65
2024/01/18 04:34:48;;;;;;;18.47;17.80;;;11.60;99.90;;;;;;5069511;28;20219;-66
2024/01/18 04:37:14;;;;;;;19.60;18.90;;;11.60;99.90;;;;;;5063561;28;20207;-65
2024/01/18 04:39:41;;;;;;;19.23;18.57;;;11.60;99.90;;;;;;5068896;28;20215;-66
2024/01/18 04:42:09;;;;;;;19.93;19.20;;;11.60;99.90;;;;;;5066176;28;20226;-67
2024/01/18 04:44:38;;;;;;;18.83;18.23;;;11.60;99.90;;;;;;5066015;28;20216;-66
2024/01/18 04:47:05;;;;;;;17.63;17.03;;;11.50;99.90;;;;;;5068083;28;20231;-66
2024/01/18 04:49:33;;;;;;;19.13;18.43;;;11.60;99.90;;;;;;5072497;28;20207;-67
2024/01/18 04:52:00;;;;;;;18.10;17.50;;;11.60;99.90;;;;;;5068331;28;20215;-67
2024/01/18 04:54:27;;;;;;;20.20;19.50;;;11.50;99.90;;;;;;5073827;28;20233;-65
2024/01/18 04:56:54;;;;;;;19.63;18.93;;;11.60;99.90;;;;;;5069374;28;20196;-66
2024/01/18 04:59:21;;;;;;;19.70;19.00;;;11.50;99.90;;;;;;5080088;28;20214;-65
2024/01/18 05:01:49;;;;;;;20.73;20.03;;;11.50;99.90;;;;;;5076375;28;20208;-67
2024/01/18 05:04:18;;;;;;;19.73;19.03;;;11.50;99.90;;;;;;5066203;28;20251;-65
2024/01/18 05:06:45;;;;;;;19.40;18.70;;;11.50;99.90;;;;;;5067515;28;20247;-65
2024/01/18 05:09:16;;;;;;;17.20;16.60;;;11.50;99.90;;;;;;5074886;28;20211;-65
2024/01/18 05:11:42;;;;;;;19.13;18.50;;;11.50;99.90;;;;;;5079879;28;20598;-67
2024/01/18 05:14:09;;;;;;;17.07;16.47;;;11.50;99.90;;;;;;5077334;28;20233;-65
2024/01/18 05:16:39;;;;;;;17.00;16.40;;;11.60;99.90;;;;;;5077392;28;20218;-66
2024/01/18 05:19:08;;;;;;;18.03;17.43;;;11.60;99.90;;;;;;5077741;28;20587;-65
2024/01/18 05:21:34;;;;;;;20.37;19.67;;;11.60;99.90;;;;;;5066697;28;20232;-66
2024/01/18 05:24:01;;;;;;;17.77;17.17;;;11.40;99.90;;;;;;5068572;28;20223;-66
2024/01/18 05:26:28;;;;;;;16.90;16.30;;;11.00;99.90;;;;;;5066761;28;20219;-65
2024/01/18 05:28:55;;;;;;;15.97;15.37;;;10.50;99.90;;;;;;5069952;28;20203;-66
2024/01/18 05:31:21;;;;;;;13.73;13.23;;;10.00;99.90;;;;;;5069422;28;20211;-66
2024/01/18 05:33:48;;;;;;;14.70;14.20;;;9.50;99.90;;;;;;5065064;28;20235;-66
2024/01/18 05:36:17;;;;;;;13.60;13.10;;;9.30;99.90;;;;;;5069805;28;20264;-66
2024/01/18 05:38:43;;;;;;;13.43;12.93;;;8.90;99.90;;;;;;5061922;28;20200;-66
2024/01/18 05:41:11;;;;;;;13.90;13.40;;;8.50;99.90;;;;;;5066503;28;20294;-67
2024/01/18 05:43:38;;;;;;;14.13;13.63;;;8.20;99.90;;;;;;5067126;28;20226;-67
2024/01/18 05:46:04;;;;;;;13.80;13.30;;;8.00;99.90;;;;;;5067265;28;20251;-67
2024/01/18 05:48:31;;;;;;;12.80;12.40;;;7.70;99.90;;;;;;5065435;28;20215;-66
2024/01/18 05:50:58;;;;;;;13.60;13.10;;;7.50;99.90;;;;;;5067376;28;20199;-67
2024/01/18 05:53:26;;;;;;;13.00;12.50;;;7.30;99.90;;;;;;5080790;28;20215;-66
2024/01/18 05:55:52;;;;;;;12.03;11.63;;;7.10;99.90;;;;;;5065575;28;20200;-65
2024/01/18 05:58:19;;;;;;;12.40;12.00;;;7.00;99.90;;;;;;5065414;28;20215;-66
2024/01/18 06:00:46;;;;;;;13.33;12.83;;;7.10;99.90;;;;;;5067461;28;20202;-66
2024/01/18 06:03:12;;;;;;;13.43;12.93;;;6.90;99.90;;;;;;5073271;28;20578;-66
2024/01/18 06:05:39;;;;;;;14.23;13.73;;;6.70;99.90;;;;;;5069977;28;20230;-66
2024/01/18 06:08:06;;;;;;;15.70;15.10;;;6.60;99.90;;;;;;5068725;28;20203;-65
2024/01/18 06:10:34;;;;;;;15.23;14.73;;;6.60;99.90;;;;;;5066536;28;20207;-66
2024/01/18 06:13:00;;;;;;;15.07;14.57;;;6.40;99.90;;;;;;5066486;28;20241;-65
2024/01/18 06:15:27;;;;;;;14.80;14.30;;;6.20;99.90;;;;;;5066443;28;20227;-66
2024/01/18 06:17:53;;;;;;;15.13;14.63;;;6.10;99.90;;;;;;5065655;28;20208;-65
2024/01/18 06:20:20;;;;;;;14.23;13.73;;;6.00;99.90;;;;;;5068202;28;20207;-65
2024/01/18 06:22:47;;;;;;;13.80;13.30;;;6.00;99.90;;;;;;5066904;28;20203;-64
2024/01/18 06:25:13;;;;;;;12.27;11.87;;;6.00;99.90;;;;;;5069293;28;20581;-67
2024/01/18 06:27:41;;;;;;;14.97;14.47;;;5.90;99.90;;;;;;5065864;28;20682;-65
2024/01/18 06:30:10;;;;;;;14.20;13.70;;;5.90;99.90;;;;;;5070724;28;20215;-65
2024/01/18 06:32:38;;;;;;;14.10;13.60;;;5.80;99.90;;;;;;5074105;28;20234;-67
2024/01/18 06:35:05;;;;;;;13.83;13.33;;;5.70;99.90;;;;;;5066999;28;20230;-67
2024/01/18 06:37:32;;;;;;;14.43;13.83;;;5.70;99.90;;;;;;5066084;28;20197;-66
2024/01/18 06:39:59;;;;;;;14.27;13.77;;;5.90;99.90;;;;;;5060951;28;20253;-68
2024/01/18 06:42:26;;;;;;;12.83;12.33;;;6.10;99.90;;;;;;5072811;28;20492;-65
2024/01/18 06:44:54;;;;;;;13.60;13.10;;;6.10;99.90;;;;;;5067117;28;20695;-67
2024/01/18 06:47:21;;;;;;;13.53;13.03;;;6.20;99.90;;;;;;5069599;28;20231;-67
2024/01/18 06:49:48;;;;;;;12.83;12.33;;;6.20;99.90;;;;;;5071273;28;20207;-68
2024/01/18 06:52:15;;;;;;;14.40;13.90;;;6.30;99.90;;;;;;5068743;28;20233;-65
2024/01/18 06:54:43;;;;;;;14.37;13.87;;;6.30;99.90;;;;;;5068635;28;20219;-68
2024/01/18 06:57:10;;;;;;;15.10;14.60;;;6.10;99.90;;;;;;5067294;28;20200;-67
2024/01/18 06:59:37;;;;;;;17.13;16.53;;;5.90;99.90;;;;;;5067670;28;20290;-65
2024/01/18 07:02:06;;;;;;;13.85;13.35;;;5.80;99.90;;;;;;5067013;28;20667;-67
2024/01/18 07:04:32;;;;;;;14.87;14.37;;;5.60;99.90;;;;;;5065269;28;20227;-67
2024/01/18 07:06:59;;;;;;;14.97;14.43;;;5.50;99.90;;;;;;5066046;28;20698;-66
2024/01/18 07:09:26;;;;;;;14.80;14.20;;;5.40;99.90;;;;;;5064753;28;20211;-68
2024/01/18 07:11:52;;;;;;;13.50;13.00;;;5.30;99.90;;;;;;5071153;28;20279;-66
2024/01/18 07:14:21;;;;;;;14.83;14.33;;;5.20;99.90;;;;;;5069153;28;20222;-66
2024/01/18 07:16:48;;;;;;;14.17;13.67;;;5.30;99.90;;;;;;5059984;28;20208;-68
2024/01/18 07:19:16;;;;;;;15.17;14.57;;;5.20;99.90;;;;;;5069366;28;20215;-68
2024/01/18 07:21:42;;;;;;;15.93;15.33;;;5.10;99.90;;;;;;5068022;28;20670;-66
2024/01/18 07:24:09;;;;;;;14.27;13.77;;;5.10;99.90;;;;;;5067570;28;20234;-66
2024/01/18 07:26:36;;;;;;;14.00;13.50;;;4.90;99.90;;;;;;5067359;28;20224;-68
2024/01/18 07:29:03;;;;;;;14.57;14.07;;;4.90;99.90;;;;;;5069946;28;20213;-67
2024/01/18 07:31:30;;;;;;;15.83;15.23;;;4.80;99.90;;;;;;5069322;28;20571;-66
2024/01/18 07:33:56;;;;;;;15.83;15.23;;;4.70;99.90;;;;;;5070273;28;20720;-66
2024/01/18 07:36:24;;;;;;;15.20;14.70;;;4.70;99.90;;;;;;5068289;28;20230;-67
2024/01/18 07:38:51;;;;;;;12.80;12.33;;;4.70;99.90;;;;;;5065232;28;20207;-65
2024/01/18 07:41:18;;;;;;;14.13;13.63;;;4.80;99.90;;;;;;5070762;28;20568;-67
2024/01/18 07:43:44;;;;;;;14.07;13.57;;;4.80;99.90;;;;;;5068199;28;20219;-67
2024/01/18 07:46:11;;;;;;;12.77;12.27;;;4.70;99.90;;;;;;5063319;28;20666;-68
2024/01/18 07:48:38;;;;;;;12.83;12.33;;;4.70;99.90;;;;;;5068302;28;20207;-67
2024/01/18 07:51:05;;;;;;;14.50;13.93;;;4.70;99.90;;;;;;5063740;28;20206;-67
2024/01/18 07:53:33;;;;;;;13.77;13.27;;;4.70;99.90;;;;;;5065509;28;20214;-67
2024/01/18 07:55:59;;;;;;;13.13;12.63;;;4.70;99.90;;;;;;5066068;28;20713;-66
2024/01/18 07:58:26;;;;;;;13.07;12.57;;;4.70;99.90;;;;;;5064009;28;20203;-68
2024/01/18 08:00:53;;;;;;;12.73;12.23;;;4.80;99.90;;;;;;5066226;28;20217;-68
2024/01/18 08:03:20;;;;;;;12.70;12.20;;;4.80;99.90;;;;;;5068623;28;20211;-67
2024/01/18 08:05:46;;;;;;;14.00;13.40;;;5.00;99.90;;;;;;5069776;28;20697;-67
2024/01/18 08:08:13;;;;;;;14.40;13.77;;;5.00;99.90;;;;;;5067555;28;20223;-67
2024/01/18 08:10:41;;;;;;;13.37;12.87;;;5.00;99.90;;;;;;5069082;28;20253;-66
2024/01/18 08:13:08;;;;;;;12.60;12.10;;;5.00;99.90;;;;;;5064047;28;20251;-67
2024/01/18 08:15:35;;;;;;;13.17;12.67;;;5.00;99.90;;;;;;5066363;28;20230;-66
2024/01/18 08:18:01;;;;;;;13.40;12.90;;;5.00;99.90;;;;;;5070816;28;20218;-65
2024/01/18 08:20:28;;;;;;;12.68;12.18;;;4.90;99.90;;;;;;5066010;28;20215;-66
2024/01/18 08:22:55;;;;;;;13.47;12.97;;;4.90;99.90;;;;;;5072749;28;20218;-68
2024/01/18 08:25:22;;;;;;;13.87;13.37;;;4.80;99.90;;;;;;5070601;28;20222;-65
2024/01/18 08:27:53;;;;;;;14.30;13.70;;;4.80;99.90;;;;;;5076675;28;20239;-66
2024/01/18 08:30:20;;;;;;;14.63;14.03;;;4.80;99.90;;;;;;5074489;28;20735;-68
2024/01/18 08:32:46;;;;;;;14.07;13.57;;;4.60;99.90;;;;;;5073209;28;20336;-68
2024/01/18 08:35:13;;;;;;;14.67;14.17;;;4.50;99.90;;;;;;5072250;28;20710;-66
2024/01/18 08:37:40;;;;;;;13.30;12.80;;;4.40;99.90;;;;;;5072188;28;20208;-68
2024/01/18 08:40:08;;;;;;;13.53;13.03;;;4.40;99.90;;;;;;5072036;28;20203;-66
2024/01/18 08:42:35;;;;;;;13.53;13.03;;;4.50;99.90;;;;;;5070179;28;20199;-68
2024/01/18 08:45:05;;;;;;;12.40;11.90;;;4.50;99.90;;;;;;5073985;28;20306;-67
2024/01/18 08:47:32;;;;;;;12.90;12.40;;;4.60;99.90;;;;;;5070593;28;20223;-67
2024/01/18 08:49:59;;;;;;;13.90;13.33;;;4.60;99.90;;;;;;5073492;28;20210;-68
2024/01/18 08:52:26;;;;;;;12.87;12.37;;;4.60;99.90;;;;;;5072000;28;20309;-68
2024/01/18 08:54:53;;;;;;;13.35;12.85;;;4.50;99.90;;;;;;5066769;28;20231;-68
2024/01/18 08:57:20;;;;;;;12.17;11.77;;;4.50;99.90;;;;;;5065973;28;20295;-68
2024/01/18 08:59:46;;;;;;;12.20;11.80;;;4.40;99.90;;;;;;5070412;28;20200;-66
2024/01/18 09:02:14;;;;;;;11.87;11.47;;;4.40;99.90;;;;;;5069269;28;20214;-66
2024/01/18 09:04:41;;;;;;;12.83;12.33;;;4.40;99.90;;;;;;5073155;28;20227;-67
2024/01/18 09:07:08;;;;;;;14.43;13.93;;;4.30;99.90;;;;;;5078526;28;20231;-67
2024/01/18 09:09:35;;;;;;;14.57;14.07;;;4.20;99.90;;;;;;5079902;28;20207;-64
2024/01/18 09:12:01;;;;;;;14.60;14.10;;;4.20;99.90;;;;;;5084302;28;20579;-66
2024/01/18 09:14:28;;;;;;;15.40;14.80;;;4.00;99.90;;;;;;5084813;28;20224;-66
2024/01/18 09:16:55;;;;;;;15.60;15.00;;;3.90;99.90;;;;;;5082687;28;20271;-66
2024/01/18 09:19:23;;;;;;;14.23;13.73;;;3.80;99.90;;;;;;5076054;28;20444;-67
2024/01/18 09:21:49;;;;;;;16.40;15.80;;;3.70;99.90;;;;;;5068490;28;20200;-64
2024/01/18 09:24:16;;;;;;;15.13;14.53;;;3.70;99.90;;;;;;5069880;28;20227;-67
2024/01/18 09:26:43;;;;;;;15.23;14.63;;;3.70;99.90;;;;;;5073089;28;20218;-66
2024/01/18 09:29:10;;;;;;;16.90;16.30;;;3.60;99.90;;;;;;5080215;28;21079;-66
2024/01/18 09:31:36;;;;;;;16.73;16.13;;;3.50;99.90;;;;;;5079944;28;20203;-66
2024/01/18 09:34:03;;;;;;;17.97;17.27;;;3.40;99.90;;;;;;5073417;28;20230;-67
2024/01/18 09:36:31;;;;;;;17.10;16.40;;;3.20;99.90;;;;;;5072333;28;20226;-66
2024/01/18 09:38:58;;;;;;;17.73;17.03;;;3.10;99.90;;;;;;5070938;28;20697;-67
2024/01/18 09:41:27;;;;;;;17.27;16.57;;;3.00;99.90;;;;;;5068954;28;20199;-65
2024/01/18 09:43:59;;;;;;;17.33;16.67;;;3.00;99.90;;;;;;5068504;28;20226;-68
2024/01/18 09:46:27;;;;;;;16.63;15.97;;;2.90;99.90;;;;;;5075540;28;20585;-67
2024/01/18 09:48:53;;;;;;;15.70;15.10;;;2.90;99.90;;;;;;5069321;28;20231;-66
2024/01/18 09:51:23;;;;;;;15.97;15.37;;;2.80;99.90;;;;;;5070759;28;20207;-67
2024/01/18 09:53:54;;;;;;;15.67;15.07;;;2.70;99.90;;;;;;5067425;28;20233;-67
2024/01/18 09:56:24;;;;;;;14.90;14.30;;;2.70;99.90;;;;;;5071597;28;20213;-67
2024/01/18 09:58:52;;;;;;;14.70;14.10;;;2.70;99.90;;;;;;5062250;28;20196;-67
2024/01/18 10:01:21;;;;;;;15.37;14.77;;;2.70;99.90;;;;;;5072330;28;20553;-68
2024/01/18 10:03:48;;;;;;;15.83;15.23;;;2.70;99.90;;;;;;5070328;28;20211;-66
2024/01/18 10:06:17;;;;;;;14.60;14.10;;;2.80;99.90;;;;;;5065419;28;20200;-66
2024/01/18 10:08:44;;;;;;;15.73;15.13;;;2.80;99.90;;;;;;5069698;28;20314;-65
2024/01/18 10:11:12;;;;;;;14.25;13.75;;;2.90;99.90;;;;;;5076243;28;20587;-65
2024/01/18 10:13:51;;;;;;;15.33;14.73;;;3.00;99.90;;;;;;5074556;28;20207;-69
2024/01/18 10:16:27;;;;;;;15.17;14.57;;;3.00;99.90;;;;;;5068063;28;20212;-66
2024/01/18 10:18:54;;;;;;;14.90;14.33;;;3.00;99.90;;;;;;5071925;28;20342;-65
2024/01/18 10:21:22;;;;;;;15.03;14.43;;;3.00;99.90;;;;;;5070349;28;20203;-67
2024/01/18 10:23:48;;;;;;;15.13;14.52;;;3.00;99.90;;;;;;5071766;28;20239;-67
2024/01/18 10:26:17;;;;;;;17.40;16.70;;;3.00;99.90;;;;;;5067156;28;20200;-67
2024/01/18 10:28:44;;;;;;;15.83;15.17;;;3.00;99.90;;;;;;5074298;28;20314;-67
2024/01/18 10:31:10;;;;;;;16.63;16.03;;;3.00;99.90;;;;;;5072407;28;20222;-67
2024/01/18 10:33:37;;;;;;;16.27;15.67;;;2.90;99.90;;;;;;5072288;28;20200;-67
2024/01/18 10:36:04;;;;;;;15.30;14.70;;;3.00;99.90;;;;;;5071238;28;20226;-66
2024/01/18 10:38:32;;;;;;;15.48;14.88;;;3.00;99.90;;;;;;5068539;28;20215;-65
2024/01/18 10:41:00;;;;;;;16.27;15.67;;;2.90;99.90;;;;;;5071390;28;20250;-66
2024/01/18 10:43:30;;;;;;;15.83;15.23;;;2.90;99.90;;;;;;5072521;28;20203;-67
2024/01/18 10:45:58;;;;;;;15.50;14.90;;;2.90;99.90;;;;;;5073215;28;20226;-65
2024/01/18 10:48:26;;;;;;;15.70;15.10;;;2.80;99.90;;;;;;5069051;28;20234;-66
2024/01/18 10:50:55;;;;;;;15.33;14.73;;;2.80;99.90;;;;;;5067063;28;20674;-66
2024/01/18 10:53:24;;;;;;;15.47;14.87;;;2.70;99.90;;;;;;5070800;28;20215;-68
2024/01/18 10:55:50;;;;;;;14.90;14.30;;;2.60;99.90;;;;;;5071287;28;20716;-65
2024/01/18 10:58:18;;;;;;;15.90;15.20;;;2.50;99.90;;;;;;5070780;28;20374;-67
2024/01/18 11:00:47;;;;;;;15.43;14.77;;;2.50;99.90;;;;;;5067248;28;20575;-67
2024/01/18 11:03:13;;;;;;;14.03;13.47;;;2.40;99.90;;;;;;5069852;28;20554;-67
2024/01/18 11:05:42;;;;;;;14.70;14.10;;;2.40;99.90;;;;;;5068402;28;20234;-66
2024/01/18 11:08:09;;;;;;;17.67;16.87;;;2.30;99.90;;;;;;5070036;28;20234;-66
2024/01/18 11:10:36;;;;;;;14.13;13.55;;;2.30;99.90;;;;;;5070853;28;20214;-66
2024/01/18 11:13:05;;;;;;;14.13;13.60;;;2.20;99.90;;;;;;5069564;28;20260;-67
2024/01/18 11:15:32;;;;;;;14.57;14.00;;;2.20;99.90;;;;;;5066983;28;20238;-68
2024/01/18 11:18:09;;;;;;;14.13;13.53;;;2.00;99.90;;;;;;5069966;28;20732;-65
2024/01/18 11:20:36;;;;;;;13.53;13.03;;;1.90;99.90;;;;;;5069063;28;20232;-68
2024/01/18 11:23:04;;;;;;;14.13;13.53;;;2.00;99.90;;;;;;5068373;28;20211;-66
2024/01/18 11:25:33;;;;;;;18.00;17.20;;;1.80;99.90;;;;;;5067363;28;20580;-65
2024/01/18 11:28:01;;;;;;;15.83;15.23;;;1.80;99.90;;;;;;5069484;28;20275;-65
2024/01/18 11:30:36;;;;;;;13.35;12.85;;;1.70;99.90;;;;;;5068823;28;20290;-68
2024/01/18 11:33:06;;;;;;;14.80;14.23;;;1.70;99.90;;;;;;5069367;28;20260;-68
2024/01/18 11:35:34;;;;;;;17.27;16.53;;;1.70;99.90;;;;;;5069810;28;20223;-67
2024/01/18 11:38:18;;;;;;;13.90;13.30;;;1.70;99.90;;;;;;5065864;28;20207;-66
2024/01/18 11:40:45;;;;;;;14.90;14.30;;;1.60;99.90;;;;;;5070170;28;20203;-67
2024/01/18 11:43:12;;;;;;;14.93;14.33;;;1.40;99.90;;;;;;5068070;28;20210;-65
2024/01/18 11:45:39;;;;;;;14.80;14.20;;;1.40;99.90;;;;;;5068976;28;20225;-65
2024/01/18 11:48:07;;;;;;;15.27;14.57;;;1.40;99.90;;;;;;5071439;28;20223;-67
2024/01/18 11:50:34;;;;;;;13.70;13.20;;;1.30;99.90;;;;;;5067645;28;20207;-66
2024/01/18 11:53:01;;;;;;;17.10;16.33;;;1.40;99.90;;;;;;5070813;28;20216;-67
2024/01/18 11:55:31;;;;;;;14.63;14.07;;;1.30;99.90;;;;;;5071379;28;20226;-66
2024/01/18 11:58:01;;;;;;;17.38;16.65;;;1.30;99.90;;;;;;5073628;28;20196;-66
2024/01/18 12:00:28;;;;;;;15.47;14.87;;;1.30;99.90;;;;;;5067130;28;20203;-68
2024/01/18 12:02:56;;;;;;;15.03;14.43;;;1.30;99.90;;;;;;5069655;28;20272;-67
2024/01/18 12:05:25;;;;;;;14.80;14.20;;;1.30;99.90;;;;;;5078144;28;20223;-67
2024/01/18 12:07:52;;;;;;;13.53;13.03;;;1.40;99.90;;;;;;5077990;28;20215;-66
2024/01/18 12:10:20;;;;;;;14.80;14.20;;;1.40;99.90;;;;;;5078116;28;20199;-66
2024/01/18 12:12:47;;;;;;;13.63;13.13;;;1.30;99.90;;;;;;5080530;28;20269;-66
2024/01/18 12:15:18;;;;;;;14.67;14.07;;;1.30;99.90;;;;;;5077750;28;20231;-67
2024/01/18 12:17:46;;;;;;;18.23;17.43;;;1.40;99.90;;;;;;5065836;28;20551;-66
2024/01/18 12:20:14;;;;;;;14.80;14.20;;;1.40;99.90;;;;;;5069669;28;20211;-66
2024/01/18 12:22:43;;;;;;;14.23;13.63;;;1.40;99.90;;;;;;5067755;28;20208;-65
2024/01/18 12:25:10;;;;;;;13.40;12.90;;;1.30;99.90;;;;;;5070120;28;20725;-66
2024/01/18 12:27:37;;;;;;;14.17;13.57;;;1.20;99.90;;;;;;5064934;28;20214;-66
2024/01/18 12:30:04;;;;;;;14.55;13.95;;;1.30;99.90;;;;;;5069326;28;20603;-66
2024/01/18 12:32:31;;;;;;;13.70;13.10;;;1.30;99.90;;;;;;5069977;28;20203;-67
2024/01/18 12:34:58;;;;;;;13.50;13.00;;;1.30;99.90;;;;;;5066699;28;20744;-66